createdAt,value
2023-01-07T00:00:03.664Z,1020.88
2023-01-07T00:05:03.333Z,1020.94
2023-01-07T00:10:03.306Z,1020.89
2023-01-07T00:15:03.051Z,1020.91
2023-01-07T00:20:03.595Z,1020.75
2023-01-07T00:25:03.319Z,1020.72
2023-01-07T00:30:03.019Z,1020.61
2023-01-07T00:35:02.727Z,1020.61
2023-01-07T00:40:03.517Z,1020.6
2023-01-07T00:45:03.301Z,1020.63
2023-01-07T00:50:03.097Z,1020.73
2023-01-07T00:55:03.034Z,1020.72
2023-01-07T01:00:02.876Z,1020.71
2023-01-07T01:05:03.541Z,1020.63
2023-01-07T01:10:03.362Z,1020.6
2023-01-07T01:15:03.324Z,1020.71
2023-01-07T01:20:02.949Z,1020.71
2023-01-07T01:25:02.831Z,1020.61
2023-01-07T01:30:08.344Z,1020.52
2023-01-07T01:35:03.203Z,1020.48
2023-01-07T01:40:02.872Z,1020.59
2023-01-07T01:45:02.981Z,1020.58
2023-01-07T01:50:03.545Z,1020.55
2023-01-07T01:55:03.629Z,1020.56
2023-01-07T02:00:03.105Z,1020.49
2023-01-07T02:05:02.711Z,1020.39
2023-01-07T02:10:03.648Z,1020.35
2023-01-07T02:15:03.094Z,1020.4
2023-01-07T02:20:02.858Z,1020.42
2023-01-07T02:25:02.757Z,1020.41
2023-01-07T02:30:03.663Z,1020.34
2023-01-07T02:35:03.359Z,1020.25
2023-01-07T02:40:03.013Z,1020.21
2023-01-07T02:45:03.025Z,1020.23
2023-01-07T02:50:03.579Z,1020.21
2023-01-07T02:55:03.395Z,1020.24
2023-01-07T03:00:03.139Z,1020.12
2023-01-07T03:05:02.751Z,1020.14
2023-01-07T03:10:03.502Z,1020.05
2023-01-07T03:15:03.669Z,1020.06
2023-01-07T03:20:03.447Z,1020.07
2023-01-07T03:25:03.501Z,1020.08
2023-01-07T03:30:03.283Z,1019.95
2023-01-07T03:35:03.093Z,1019.91
2023-01-07T03:40:03.036Z,1019.95
2023-01-07T03:45:03.708Z,1019.97
2023-01-07T03:50:03.538Z,1019.89
2023-01-07T03:55:03.786Z,1019.88
2023-01-07T04:00:02.968Z,1019.88
2023-01-07T04:05:03.085Z,1019.79
2023-01-07T04:10:03.359Z,1019.71
2023-01-07T04:15:03.108Z,1019.73
2023-01-07T04:20:03.050Z,1019.77
2023-01-07T04:25:02.927Z,1019.65
2023-01-07T04:30:03.020Z,1019.65
2023-01-07T04:35:02.638Z,1019.7
2023-01-07T04:40:03.375Z,1019.62
2023-01-07T04:45:03.234Z,1019.59
2023-01-07T04:50:02.930Z,1019.55
2023-01-07T04:55:02.990Z,1019.49
2023-01-07T05:00:03.582Z,1019.39
2023-01-07T05:05:03.067Z,1019.51
2023-01-07T05:10:03.464Z,1019.34
2023-01-07T05:15:03.233Z,1019.34
2023-01-07T05:20:02.803Z,1019.25
2023-01-07T05:25:02.814Z,1019.22
2023-01-07T05:30:02.785Z,1019.35
2023-01-07T05:35:03.685Z,1019.3
2023-01-07T05:40:03.570Z,1019.34
2023-01-07T05:45:03.225Z,1019.27
2023-01-07T05:50:02.797Z,1019.33
2023-01-07T05:55:03.389Z,1019.32
2023-01-07T06:00:02.757Z,1019.29
2023-01-07T06:05:03.789Z,1019.33
2023-01-07T06:10:03.979Z,1019.35
2023-01-07T06:15:02.869Z,1019.36
2023-01-07T06:20:03.690Z,1019.22
2023-01-07T06:25:03.657Z,1019.31
2023-01-07T06:30:03.415Z,1019.38
2023-01-07T06:35:03.237Z,1019.32
2023-01-07T06:40:03.193Z,1019.35
2023-01-07T06:45:02.900Z,1019.4
2023-01-07T06:50:03.506Z,1019.42
2023-01-07T06:55:03.408Z,1019.43
2023-01-07T07:00:03.181Z,1019.41
2023-01-07T07:05:02.719Z,1019.39
2023-01-07T07:10:03.524Z,1019.35
2023-01-07T07:15:03.505Z,1019.36
2023-01-07T07:20:03.218Z,1019.36
2023-01-07T07:25:03.141Z,1019.33
2023-01-07T07:30:03.336Z,1019.41
2023-01-07T07:35:03.098Z,1019.4
2023-01-07T07:40:02.848Z,1019.37
2023-01-07T07:45:03.624Z,1019.39
2023-01-07T07:50:03.569Z,1019.33
2023-01-07T07:55:26.389Z,1019.29
2023-01-07T08:00:02.960Z,1019.35
2023-01-07T08:05:03.644Z,1019.42
2023-01-07T08:10:03.415Z,1019.31
2023-01-07T08:15:03.153Z,1019.39
2023-01-07T08:20:02.958Z,1019.37
2023-01-07T08:25:02.868Z,1019.41
2023-01-07T08:30:02.906Z,1019.33
2023-01-07T08:35:03.491Z,1019.34
2023-01-07T08:40:06.481Z,1019.29
2023-01-07T08:45:02.753Z,1019.29
2023-01-07T08:50:02.981Z,1019.28
2023-01-07T08:55:02.890Z,1019.24
2023-01-07T09:00:03.447Z,1019.26
2023-01-07T09:05:03.349Z,1019.27
2023-01-07T09:10:02.929Z,1019.28
2023-01-07T09:15:03.009Z,1019.33
2023-01-07T09:20:02.747Z,1019.28
2023-01-07T09:25:03.393Z,1019.27
2023-01-07T09:30:03.115Z,1019.21
2023-01-07T09:35:02.957Z,1019.14
2023-01-07T09:40:02.639Z,1019.16
2023-01-07T09:45:03.452Z,1019.08
2023-01-07T09:50:03.116Z,1019.11
2023-01-07T09:55:02.770Z,1019.12
2023-01-07T10:00:03.667Z,1019.02
2023-01-07T10:05:03.657Z,1018.98
2023-01-07T10:10:03.457Z,1018.98
2023-01-07T10:15:03.859Z,1018.93
2023-01-07T10:20:03.346Z,1018.97
2023-01-07T10:25:03.054Z,1018.8
2023-01-07T10:30:03.092Z,1018.71
2023-01-07T10:35:03.563Z,1018.59
2023-01-07T10:40:03.302Z,1018.49
2023-01-07T10:45:03.090Z,1018.4
2023-01-07T10:50:02.694Z,1018.32
2023-01-07T10:55:04.076Z,1018.26
2023-01-07T11:00:03.459Z,1018.15
2023-01-07T11:05:03.538Z,1018.18
2023-01-07T11:10:03.385Z,1018.17
2023-01-07T11:15:03.206Z,1018.1
2023-01-07T11:20:02.856Z,1018.03
2023-01-07T11:25:02.802Z,1017.92
2023-01-07T11:30:03.157Z,1017.94
2023-01-07T11:35:03.571Z,1017.83
2023-01-07T11:40:03.383Z,1017.82
2023-01-07T11:45:03.153Z,1017.85
2023-01-07T11:50:02.532Z,1017.74
2023-01-07T11:55:03.657Z,1017.71
2023-01-07T12:00:03.449Z,1017.58
2023-01-07T12:05:03.181Z,1017.58
2023-01-07T12:10:02.953Z,1017.5
2023-01-07T12:15:02.721Z,1017.5
2023-01-07T12:20:03.434Z,1017.4
2023-01-07T12:25:03.197Z,1017.33
2023-01-07T12:30:03.021Z,1017.34
2023-01-07T12:35:16.299Z,1017.22
2023-01-07T12:40:03.057Z,1017.27
2023-01-07T12:45:02.955Z,1017.2
2023-01-07T12:50:02.874Z,1017.09
2023-01-07T12:55:03.293Z,1017.02
2023-01-07T13:00:02.737Z,1016.93
2023-01-07T13:05:04.028Z,1016.9
2023-01-07T13:10:03.309Z,1016.82
2023-01-07T13:15:03.013Z,1016.87
2023-01-07T13:20:05.524Z,1016.71
2023-01-07T13:25:03.459Z,1016.61
2023-01-07T13:30:03.922Z,1016.67
2023-01-07T13:35:03.167Z,1016.55
2023-01-07T13:40:02.996Z,1016.54
2023-01-07T13:45:02.753Z,1016.4
2023-01-07T13:50:03.515Z,1016.31
2023-01-07T13:55:03.448Z,1016.26
2023-01-07T14:00:03.475Z,1016.18
2023-01-07T14:05:03.875Z,1016.2
2023-01-07T14:10:03.445Z,1016.17
2023-01-07T14:15:02.745Z,1016.21
2023-01-07T14:20:02.705Z,1016.16
2023-01-07T14:25:03.697Z,1016.11
2023-01-07T14:30:17.608Z,1016.16
2023-01-07T14:35:03.298Z,1016.14
2023-01-07T14:40:03.322Z,1016.18
2023-01-07T14:45:03.382Z,1016.02
2023-01-07T14:50:03.236Z,1016.09
2023-01-07T14:55:03.402Z,1016.07
2023-01-07T15:00:02.943Z,1016.14
2023-01-07T15:05:02.713Z,1016.14
2023-01-07T15:10:02.759Z,1016.24
2023-01-07T15:15:03.559Z,1016.19
2023-01-07T15:20:03.580Z,1016.09
2023-01-07T15:25:03.529Z,1016.08
2023-01-07T15:30:03.466Z,1016.06
2023-01-07T15:35:02.951Z,1016.08
2023-01-07T15:40:03.309Z,1015.95
2023-01-07T15:45:03.620Z,1015.94
2023-01-07T15:50:03.770Z,1015.93
2023-01-07T15:55:03.824Z,1015.89
2023-01-07T16:00:03.476Z,1015.82
2023-01-07T16:05:03.604Z,1015.73
2023-01-07T16:10:03.210Z,1015.73
2023-01-07T16:15:05.699Z,1015.73
2023-01-07T16:20:03.490Z,1015.55
2023-01-07T16:25:03.286Z,1015.51
2023-01-07T16:30:03.251Z,1015.41
2023-01-07T16:35:08.938Z,1015.32
2023-01-07T16:40:02.667Z,1015.32
2023-01-07T16:45:03.539Z,1015.26
2023-01-07T16:50:03.338Z,1015.16
2023-01-07T16:55:03.575Z,1015.19
2023-01-07T17:00:03.592Z,1015.13
2023-01-07T17:05:03.632Z,1015.09
2023-01-07T17:10:03.095Z,1015.05
2023-01-07T17:15:02.859Z,1015.03
2023-01-07T17:20:02.929Z,1014.98
2023-01-07T17:25:02.660Z,1014.8
2023-01-07T17:30:03.560Z,1014.84
2023-01-07T17:35:03.348Z,1014.74
2023-01-07T17:40:03.101Z,1014.72
2023-01-07T17:45:02.954Z,1014.61
2023-01-07T17:50:03.014Z,1014.55
2023-01-07T17:55:03.224Z,1014.51
2023-01-07T18:00:02.864Z,1014.52
2023-01-07T18:05:03.810Z,1014.47
2023-01-07T18:10:03.510Z,1014.43
2023-01-07T18:15:03.335Z,1014.42
2023-01-07T18:20:03.279Z,1014.41
2023-01-07T18:25:03.491Z,1014.21
2023-01-07T18:30:03.259Z,1014.23
2023-01-07T18:35:02.997Z,1014.16
2023-01-07T18:40:03.021Z,1014.07
2023-01-07T18:45:02.986Z,1014.13
2023-01-07T18:50:03.577Z,1014.1
2023-01-07T18:55:03.263Z,1014.06
2023-01-07T19:00:03.221Z,1014.09
2023-01-07T19:05:02.914Z,1014.01
2023-01-07T19:10:02.923Z,1013.97
2023-01-07T19:15:02.768Z,1013.87
2023-01-07T19:20:03.555Z,1013.75
2023-01-07T19:25:03.737Z,1013.81
2023-01-07T19:30:03.102Z,1013.72
2023-01-07T19:35:02.857Z,1013.8
2023-01-07T19:40:03.562Z,1013.78
2023-01-07T19:45:03.313Z,1013.64
2023-01-07T19:50:03.037Z,1013.6
2023-01-07T19:55:03.602Z,1013.53
2023-01-07T20:00:03.572Z,1013.48
2023-01-07T20:05:03.673Z,1013.56
2023-01-07T20:10:03.360Z,1013.48
2023-01-07T20:15:03.179Z,1013.49
2023-01-07T20:20:02.907Z,1013.31
2023-01-07T20:25:02.882Z,1013.26
2023-01-07T20:30:02.759Z,1013.26
2023-01-07T20:35:03.503Z,1013.31
2023-01-07T20:40:03.516Z,1013.19
2023-01-07T20:45:03.109Z,1013.09
2023-01-07T20:50:03.140Z,1013.05
2023-01-07T20:55:02.923Z,1012.93
2023-01-07T21:00:02.768Z,1012.84
2023-01-07T21:05:02.718Z,1012.95
2023-01-07T21:10:03.522Z,1012.96
2023-01-07T21:15:03.213Z,1012.84
2023-01-07T21:20:02.999Z,1012.85
2023-01-07T21:25:02.872Z,1012.8
2023-01-07T21:30:06.669Z,1012.71
2023-01-07T21:35:03.344Z,1012.5
2023-01-07T21:40:03.338Z,1012.54
2023-01-07T21:45:03.440Z,1012.54
2023-01-07T21:50:03.120Z,1012.56
2023-01-07T21:55:03.079Z,1012.48
2023-01-07T22:00:03.513Z,1012.37
2023-01-07T22:05:03.251Z,1012.26
2023-01-07T22:10:03.254Z,1012.27
2023-01-07T22:15:03.162Z,1012.18
2023-01-07T22:20:02.817Z,1012.07
2023-01-07T22:25:02.606Z,1012.02
2023-01-07T22:30:03.517Z,1012
2023-01-07T22:35:03.243Z,1012.09
2023-01-07T22:40:03.301Z,1012.18
2023-01-07T22:45:02.785Z,1012.24
2023-01-07T22:50:03.751Z,1012.25
2023-01-07T22:55:03.137Z,1012.12
2023-01-07T23:00:02.987Z,1012.09
2023-01-07T23:05:02.688Z,1012.03
2023-01-07T23:10:02.741Z,1012.07
2023-01-07T23:15:03.482Z,1011.99
2023-01-07T23:20:03.624Z,1011.87
2023-01-07T23:25:03.452Z,1011.79
2023-01-07T23:30:03.264Z,1011.87
2023-01-07T23:35:03.100Z,1011.68
2023-01-07T23:40:02.765Z,1011.63
2023-01-07T23:45:02.949Z,1011.55
2023-01-07T23:50:02.897Z,1011.36
2023-01-07T23:55:03.278Z,1011.28
